Wetmore, Texas
Current Conditions -  °F | °C
As of 6:51 PM on Saturday 22 Nov 2014 (Local Time) from KSAT Reporting Station
Broken Clouds Broken Clouds  
Wind Chill: 70°   Ceiling: 5500
Heat Index: 70°   Visibility: 10mi
Dew Point: 66°   Wind: 7mph
Humidity: 87%   Direction: 120°ESE
Pressure: 29.75"   Gusts: NA
Location:  29.5903°N, 98.4049°W
Report Text: KSAT 230051Z 12006KT 10SM SCT033 BKN055 21/19 A2975 RMK AO2 SLP058 CB OCNL LTG DSNT SW-NW AND N T02110189
Loading
Personal Weather Stations






























Interactive Weather Map New forecast layout! Learn more

10-Day Weather Forecast

Advertisements
Track Severe Weather on mobile